Time;durP1;ratioP1;P1;durP2;ratioP2;P2;SDS_P1;SDS_P2;PMS_P1;PMS_P2;Temp;Humidity;BMP_temperature;BMP_pressure;BME280_temperature;BME280_humidity;BME280_pressure;Samples;Min_cycle;Max_cycle;Signal;HPM_P1;HPM_P2
2021/12/08 00:00:38;;;;;;;12.73;5.75;;;3.00;99.90;;;;;;5041167;28;20419;-49
2021/12/08 00:03:11;;;;;;;11.18;5.60;;;3.00;99.90;;;;;;5022886;28;20072;-47
2021/12/08 00:05:40;;;;;;;15.02;5.80;;;3.00;99.90;;;;;;5041836;28;20061;-51
2021/12/08 00:08:07;;;;;;;9.18;5.05;;;3.00;99.90;;;;;;5043883;28;20444;-49
2021/12/08 00:13:05;;;;;;;11.20;6.38;;;3.00;99.90;;;;;;5055066;28;20490;-48
2021/12/08 00:15:32;;;;;;;9.10;5.50;;;3.00;99.90;;;;;;5042738;28;20128;-48
2021/12/08 00:18:03;;;;;;;12.25;6.05;;;3.00;99.90;;;;;;5043551;28;20478;-48
2021/12/08 00:20:32;;;;;;;16.40;6.80;;;3.00;99.90;;;;;;5041632;28;20041;-49
2021/12/08 00:22:58;;;;;;;14.00;6.57;;;3.00;99.90;;;;;;5024371;28;20136;-48
2021/12/08 00:25:24;;;;;;;16.25;6.00;;;3.00;99.90;;;;;;5035919;28;20142;-48
2021/12/08 00:27:50;;;;;;;16.25;6.70;;;3.00;99.90;;;;;;5043577;28;20061;-48
2021/12/08 00:30:17;;;;;;;13.15;7.22;;;3.00;99.90;;;;;;5028310;28;20044;-49
2021/12/08 00:32:44;;;;;;;11.55;6.10;;;3.00;99.90;;;;;;5032761;28;20206;-49
2021/12/08 00:35:11;;;;;;;14.90;6.57;;;3.00;99.90;;;;;;5035947;28;20410;-48
2021/12/08 00:37:37;;;;;;;15.25;6.88;;;3.10;99.90;;;;;;5036739;28;20452;-49
2021/12/08 00:40:06;;;;;;;16.38;8.05;;;3.10;99.90;;;;;;5053345;28;20049;-49
2021/12/08 00:42:32;;;;;;;14.05;7.53;;;3.10;99.90;;;;;;5038368;28;20467;-49
2021/12/08 00:44:59;;;;;;;14.13;7.10;;;3.10;99.90;;;;;;5034359;28;20057;-49
2021/12/08 00:47:27;;;;;;;13.00;7.55;;;3.10;99.90;;;;;;5043092;28;20131;-49
2021/12/08 00:49:52;;;;;;;19.77;7.22;;;3.10;99.90;;;;;;5025049;28;20049;-48
2021/12/08 00:52:19;;;;;;;17.73;8.75;;;3.10;99.90;;;;;;5032327;28;20057;-48
2021/12/08 00:54:46;;;;;;;16.83;8.50;;;3.10;99.90;;;;;;5041760;28;20049;-49
2021/12/08 00:57:12;;;;;;;16.75;8.30;;;3.10;99.90;;;;;;5022848;28;20071;-49
2021/12/08 00:59:37;;;;;;;12.88;7.68;;;3.10;99.90;;;;;;5042811;28;20048;-48
2021/12/08 01:02:05;;;;;;;13.90;8.43;;;3.10;99.90;;;;;;5044314;28;20059;-50
2021/12/08 01:04:35;;;;;;;11.85;7.78;;;3.10;99.90;;;;;;5032889;28;20049;-49
2021/12/08 01:07:01;;;;;;;18.38;8.43;;;3.10;99.90;;;;;;5043020;28;20123;-47
2021/12/08 01:09:31;;;;;;;16.55;8.50;;;3.20;99.90;;;;;;5053432;28;20279;-50
2021/12/08 01:12:01;;;;;;;12.77;8.00;;;3.20;99.90;;;;;;5050697;28;20048;-59
2021/12/08 01:14:29;;;;;;;13.50;9.48;;;3.20;99.90;;;;;;5045874;28;20060;-50
2021/12/08 01:16:55;;;;;;;15.55;8.68;;;3.20;99.90;;;;;;5041424;28;20048;-48
2021/12/08 01:19:21;;;;;;;17.23;8.52;;;3.10;99.90;;;;;;5050809;28;20083;-48
2021/12/08 01:21:48;;;;;;;13.32;8.38;;;3.20;99.90;;;;;;5045794;28;20056;-49
2021/12/08 01:24:14;;;;;;;11.88;8.10;;;3.20;99.90;;;;;;5034210;28;20363;-48
2021/12/08 01:26:40;;;;;;;15.60;8.70;;;3.20;99.90;;;;;;5035387;28;20415;-48
2021/12/08 01:29:07;;;;;;;17.55;9.60;;;3.20;99.90;;;;;;5056441;28;20131;-48
2021/12/08 01:31:35;;;;;;;15.85;9.82;;;3.20;99.90;;;;;;5049563;28;20063;-47
2021/12/08 01:34:00;;;;;;;15.43;9.18;;;3.20;99.90;;;;;;5030157;28;20049;-49
2021/12/08 01:36:26;;;;;;;18.58;9.95;;;3.30;99.90;;;;;;5051683;28;20045;-48
2021/12/08 01:38:52;;;;;;;15.40;10.00;;;3.20;99.90;;;;;;5057678;28;20049;-49
2021/12/08 01:41:18;;;;;;;15.45;10.27;;;3.30;99.90;;;;;;5046137;28;20106;-48
2021/12/08 01:45:57;;;;;;;13.60;9.90;;;3.30;99.90;;;;;;5045940;28;20053;-49
2021/12/08 01:46:31;;;;;;;15.15;10.55;;;3.30;99.90;;;;;;5045695;28;20418;-49
2021/12/08 01:48:57;;;;;;;18.70;10.77;;;3.20;99.90;;;;;;5042642;28;20504;-48
2021/12/08 01:51:25;;;;;;;17.35;11.18;;;3.30;99.90;;;;;;5040950;28;20106;-48
2021/12/08 01:53:54;;;;;;;19.50;11.30;;;3.30;99.90;;;;;;5054035;28;20044;-50
2021/12/08 01:56:23;;;;;;;15.73;10.95;;;3.30;99.90;;;;;;5033279;28;20128;-49
2021/12/08 01:58:49;;;;;;;18.02;11.73;;;3.30;99.90;;;;;;5047577;28;20049;-48
2021/12/08 02:01:18;;;;;;;18.42;11.48;;;3.30;99.90;;;;;;5040650;28;20092;-48
2021/12/08 02:03:45;;;;;;;20.52;11.73;;;3.30;99.90;;;;;;5027833;28;20037;-49
2021/12/08 02:06:14;;;;;;;19.50;12.25;;;3.40;99.90;;;;;;5032760;28;20045;-50
2021/12/08 02:08:40;;;;;;;15.98;11.80;;;3.40;99.90;;;;;;5054098;28;20108;-48
2021/12/08 02:11:07;;;;;;;17.95;12.10;;;3.40;99.90;;;;;;5049549;28;20128;-48
2021/12/08 02:13:37;;;;;;;19.33;11.98;;;3.40;99.90;;;;;;5042123;28;20064;-48
2021/12/08 02:16:07;;;;;;;19.90;13.60;;;3.40;99.90;;;;;;5059723;28;20057;-49
2021/12/08 02:18:35;;;;;;;21.13;12.88;;;3.40;99.90;;;;;;5052447;28;20095;-51
2021/12/08 02:21:03;;;;;;;20.02;11.98;;;3.50;99.90;;;;;;5026901;28;20063;-51
2021/12/08 02:23:31;;;;;;;22.52;13.25;;;3.50;99.90;;;;;;5010645;28;20559;-50
2021/12/08 02:25:57;;;;;;;18.85;12.52;;;3.50;99.90;;;;;;5017613;28;20057;-48
2021/12/08 02:28:24;;;;;;;14.65;12.02;;;3.50;99.90;;;;;;5025740;28;20080;-49
2021/12/08 02:30:57;;;;;;;19.27;13.93;;;3.50;99.90;;;;;;5025431;28;20484;-48
2021/12/08 02:50:06;;;;;;;16.33;14.02;;;3.70;99.90;;;;;;4941511;29;20043;-48
2021/12/08 02:52:38;;;;;;;20.45;15.27;;;3.80;99.90;;;;;;4943865;29;20055;-50
2021/12/08 02:55:07;;;;;;;17.35;14.15;;;3.80;99.90;;;;;;4944027;29;20121;-48
2021/12/08 02:57:33;;;;;;;18.35;14.15;;;3.80;99.90;;;;;;4943628;29;20055;-48
2021/12/08 02:59:59;;;;;;;20.58;15.40;;;3.80;99.90;;;;;;4941598;29;20634;-48
2021/12/08 03:02:25;;;;;;;21.77;14.45;;;3.90;99.90;;;;;;4948716;28;20169;-48
2021/12/08 03:04:51;;;;;;;17.88;15.98;;;3.90;99.90;;;;;;4942941;29;20505;-48
2021/12/08 03:07:17;;;;;;;19.83;15.23;;;3.90;99.90;;;;;;4937621;29;20088;-48
2021/12/08 03:09:44;;;;;;;21.40;16.23;;;3.90;99.90;;;;;;4925475;29;20054;-49
2021/12/08 03:12:09;;;;;;;22.38;15.57;;;4.00;99.90;;;;;;4932732;29;20055;-51
2021/12/08 03:14:35;;;;;;;17.83;14.50;;;4.00;99.90;;;;;;4938253;29;20061;-50
2021/12/08 03:17:08;;;;;;;20.17;15.70;;;4.00;99.90;;;;;;4938995;29;20047;-52
2021/12/08 03:19:34;;;;;;;22.87;15.77;;;4.00;99.90;;;;;;4943230;29;20070;-47
2021/12/08 03:22:03;;;;;;;16.85;14.80;;;4.10;99.90;;;;;;4925390;29;20405;-49
2021/12/08 03:24:35;;;;;;;17.80;13.63;;;4.10;99.90;;;;;;4929810;29;20585;-52
2021/12/08 03:29:48;;;;;;;19.02;16.33;;;4.20;99.90;;;;;;5032869;28;20568;-49
2021/12/08 03:32:17;;;;;;;20.73;15.68;;;4.20;99.90;;;;;;5014077;28;20057;-48
2021/12/08 03:34:52;;;;;;;20.67;16.30;;;4.20;99.90;;;;;;5011752;28;20057;-48
2021/12/08 03:37:23;;;;;;;18.40;15.93;;;4.30;99.90;;;;;;5024861;28;20103;-48
2021/12/08 03:39:50;;;;;;;18.85;16.50;;;4.30;99.90;;;;;;5028211;28;20586;-48
2021/12/08 03:42:18;;;;;;;20.70;16.10;;;4.30;99.90;;;;;;5007072;28;20052;-50
2021/12/08 03:44:44;;;;;;;21.33;16.80;;;4.30;99.90;;;;;;5023579;28;20050;-48
2021/12/08 03:47:16;;;;;;;19.10;15.93;;;4.30;99.90;;;;;;5024527;28;20123;-48
2021/12/08 03:49:45;;;;;;;21.88;16.45;;;4.30;99.90;;;;;;5005307;28;20151;-48
2021/12/08 03:52:10;;;;;;;18.50;15.45;;;4.30;99.90;;;;;;5023740;28;20049;-50
2021/12/08 03:54:36;;;;;;;18.13;16.08;;;4.30;99.90;;;;;;5005974;28;20546;-48
2021/12/08 03:57:03;;;;;;;20.40;15.95;;;4.40;99.90;;;;;;5005600;28;20168;-51
2021/12/08 03:59:29;;;;;;;21.85;16.58;;;4.30;99.90;;;;;;5004205;28;20518;-48
2021/12/08 04:01:55;;;;;;;21.45;16.50;;;4.40;99.90;;;;;;5024752;28;20152;-49
2021/12/08 04:04:26;;;;;;;21.52;16.55;;;4.40;99.90;;;;;;5013428;28;20152;-49
2021/12/08 04:06:52;;;;;;;23.20;15.80;;;4.40;99.90;;;;;;5024351;28;20052;-48
2021/12/08 04:09:39;;;;;;;21.48;18.52;;;4.40;99.90;;;;;;5037823;28;20049;-48
2021/12/08 04:12:07;;;;;;;22.05;16.80;;;4.50;99.90;;;;;;5025217;28;20052;-49
2021/12/08 04:14:37;;;;;;;25.00;17.88;;;4.50;99.90;;;;;;5022966;28;20041;-50
2021/12/08 04:17:23;;;;;;;22.05;17.25;;;4.50;99.90;;;;;;5025765;28;20055;-51
2021/12/08 04:19:52;;;;;;;20.98;16.80;;;4.50;99.90;;;;;;5022415;28;20053;-48
2021/12/08 04:22:30;;;;;;;21.77;16.70;;;4.50;99.90;;;;;;5013567;28;20057;-50
2021/12/08 04:24:57;;;;;;;23.15;17.60;;;4.50;99.90;;;;;;5005272;28;20061;-49
2021/12/08 04:27:28;;;;;;;20.80;17.63;;;4.50;99.90;;;;;;5031838;28;20155;-48
2021/12/08 04:29:56;;;;;;;20.27;16.73;;;4.50;99.90;;;;;;5023664;28;20783;-52
2021/12/08 04:32:24;;;;;;;21.73;17.55;;;4.60;99.90;;;;;;5026433;28;20396;-49
2021/12/08 04:34:59;;;;;;;22.08;16.40;;;4.60;99.90;;;;;;5023003;28;20928;-51
2021/12/08 04:37:35;;;;;;;21.40;16.48;;;4.60;99.90;;;;;;5022400;28;20133;-48
2021/12/08 04:45:18;;;;;;;21.67;16.25;;;4.50;99.90;;;;;;5004963;28;20115;-48
2021/12/08 05:03:42;;;;;;;25.48;16.83;;;4.50;99.90;;;;;;5022664;28;20049;-48
2021/12/08 05:06:23;;;;;;;23.40;17.98;;;4.50;99.90;;;;;;5024823;28;20044;-48
2021/12/08 05:08:53;;;;;;;24.63;17.67;;;4.60;99.90;;;;;;5004430;28;20060;-49
2021/12/08 05:11:24;;;;;;;27.50;17.98;;;4.60;99.90;;;;;;5021435;28;20053;-48
2021/12/08 05:13:58;;;;;;;26.73;17.10;;;4.60;99.90;;;;;;5021422;28;20123;-48
2021/12/08 05:16:26;;;;;;;22.55;15.98;;;4.70;99.90;;;;;;5029907;28;20519;-49
2021/12/08 05:18:55;;;;;;;21.30;15.93;;;4.70;99.90;;;;;;5000977;28;20041;-50
2021/12/08 05:21:32;;;;;;;22.23;15.52;;;4.70;99.90;;;;;;5041517;28;20057;-49
2021/12/08 05:24:05;;;;;;;19.67;14.68;;;4.80;99.90;;;;;;5042207;28;20108;-49
2021/12/08 05:26:57;;;;;;;17.45;14.63;;;4.80;99.90;;;;;;5042253;28;20056;-48
2021/12/08 05:29:32;;;;;;;19.52;14.63;;;4.80;99.90;;;;;;5041348;28;20048;-51
2021/12/08 05:31:59;;;;;;;17.40;14.75;;;4.80;99.90;;;;;;5035905;28;20049;-50
2021/12/08 05:34:25;;;;;;;18.25;14.38;;;4.80;99.90;;;;;;5042542;28;20129;-48
2021/12/08 05:36:52;;;;;;;20.80;13.30;;;4.80;99.90;;;;;;5042026;28;20810;-49
2021/12/08 05:39:22;;;;;;;16.75;12.32;;;4.80;99.90;;;;;;5025129;28;20053;-49
2021/12/08 05:41:53;;;;;;;21.00;12.73;;;4.70;99.90;;;;;;5030990;28;20053;-48
2021/12/08 05:44:19;;;;;;;18.55;13.10;;;4.70;99.90;;;;;;5049815;28;20051;-50
2021/12/08 05:46:49;;;;;;;16.80;12.52;;;4.60;99.90;;;;;;5050261;28;20051;-50
2021/12/08 05:49:17;;;;;;;21.58;13.40;;;4.50;99.90;;;;;;5023415;28;20068;-50
2021/12/08 05:51:50;;;;;;;21.20;12.73;;;4.40;99.90;;;;;;5049874;28;20044;-48
2021/12/08 05:54:20;;;;;;;22.48;12.90;;;4.40;99.90;;;;;;5055281;28;20123;-49
2021/12/08 05:56:49;;;;;;;17.45;12.63;;;4.30;99.90;;;;;;5044714;28;20060;-48
2021/12/08 05:59:17;;;;;;;20.33;12.48;;;4.30;99.90;;;;;;5023611;28;20037;-48
2021/12/08 06:02:00;;;;;;;21.13;11.85;;;4.30;99.90;;;;;;5049523;28;20138;-50
2021/12/08 06:04:30;;;;;;;22.63;12.55;;;4.20;99.90;;;;;;5039134;28;20095;-48
2021/12/08 06:06:59;;;;;;;20.15;12.23;;;4.20;99.90;;;;;;5046892;28;20068;-49
2021/12/08 06:09:27;;;;;;;15.15;11.88;;;4.20;99.90;;;;;;5036460;28;20136;-48
2021/12/08 06:11:54;;;;;;;20.10;11.80;;;4.20;99.90;;;;;;5053447;28;20127;-50
2021/12/08 06:14:24;;;;;;;18.98;11.90;;;4.20;99.90;;;;;;5032727;28;20110;-49
2021/12/08 06:16:51;;;;;;;16.67;11.23;;;4.20;99.90;;;;;;5045916;28;20055;-50
2021/12/08 06:19:19;;;;;;;19.13;11.20;;;4.30;99.90;;;;;;5045008;28;20119;-48
2021/12/08 06:21:46;;;;;;;21.20;11.32;;;4.30;99.90;;;;;;5045865;28;20573;-50
2021/12/08 06:24:14;;;;;;;18.52;10.52;;;4.30;99.90;;;;;;5053030;28;20060;-49
2021/12/08 06:26:40;;;;;;;17.80;10.25;;;4.30;99.90;;;;;;5042495;28;20577;-48
2021/12/08 06:29:08;;;;;;;13.65;9.70;;;4.20;99.90;;;;;;5044795;28;20057;-49
2021/12/08 06:31:35;;;;;;;16.42;9.50;;;4.20;99.90;;;;;;5025744;28;20056;-49
2021/12/08 06:34:02;;;;;;;16.60;9.88;;;4.20;99.90;;;;;;5027851;28;20172;-50
2021/12/08 06:36:43;;;;;;;16.50;8.90;;;4.20;99.90;;;;;;5045273;28;20052;-50
2021/12/08 06:39:22;;;;;;;18.05;9.82;;;4.20;99.90;;;;;;5026403;28;20119;-50
2021/12/08 06:41:52;;;;;;;16.70;8.60;;;4.30;99.90;;;;;;5026528;28;20053;-50
2021/12/08 06:44:25;;;;;;;12.55;8.40;;;4.30;99.90;;;;;;5026538;28;20155;-48
2021/12/08 06:46:52;;;;;;;11.52;7.68;;;4.30;99.90;;;;;;5045226;28;20052;-49
2021/12/08 06:49:20;;;;;;;14.07;8.07;;;4.30;99.90;;;;;;5038275;28;20150;-52
2021/12/08 06:51:52;;;;;;;13.25;7.45;;;4.30;99.90;;;;;;5045460;28;20045;-48
2021/12/08 06:54:24;;;;;;;15.48;8.40;;;4.40;99.90;;;;;;5065907;28;20407;-49
2021/12/08 06:56:56;;;;;;;17.05;8.60;;;4.40;99.90;;;;;;5046872;28;20155;-50
2021/12/08 06:59:32;;;;;;;13.05;7.50;;;4.50;99.90;;;;;;5046515;28;20131;-48
2021/12/08 07:02:11;;;;;;;12.85;8.10;;;4.50;99.90;;;;;;5039958;28;20088;-48
2021/12/08 07:05:09;;;;;;;18.45;8.00;;;4.50;99.90;;;;;;5040920;28;20522;-48
2021/12/08 07:07:36;;;;;;;13.63;7.97;;;4.50;99.90;;;;;;5031180;28;20087;-49
2021/12/08 07:10:20;;;;;;;10.98;7.32;;;4.60;99.90;;;;;;5039000;28;20055;-48
2021/12/08 07:12:51;;;;;;;13.90;7.30;;;4.60;99.90;;;;;;5027613;28;20098;-49
2021/12/08 07:15:32;;;;;;;12.98;6.70;;;4.60;99.90;;;;;;5055399;28;20040;-48
2021/12/08 07:18:02;;;;;;;12.85;7.55;;;4.60;99.90;;;;;;5027654;28;20156;-48
2021/12/08 07:20:45;;;;;;;11.32;5.93;;;4.60;99.90;;;;;;5042481;28;20061;-48
2021/12/08 07:23:36;;;;;;;10.27;6.20;;;4.50;99.90;;;;;;5039693;28;20495;-49
2021/12/08 07:26:09;;;;;;;13.50;6.07;;;4.50;99.90;;;;;;5026733;28;20067;-49
2021/12/08 07:28:37;;;;;;;12.82;5.55;;;4.40;99.90;;;;;;5051728;28;20483;-50
2021/12/08 07:31:42;;;;;;;12.57;6.07;;;4.40;99.90;;;;;;5033191;28;20563;-48
2021/12/08 07:34:14;;;;;;;12.50;5.80;;;4.40;99.90;;;;;;5044749;28;20546;-51
2021/12/08 07:36:42;;;;;;;13.27;5.90;;;4.30;99.90;;;;;;5042877;28;20522;-49
2021/12/08 07:39:14;;;;;;;10.63;5.50;;;4.30;99.90;;;;;;5024874;28;20064;-48
2021/12/08 07:41:42;;;;;;;20.27;5.80;;;4.30;99.90;;;;;;5033614;28;20087;-49
2021/12/08 07:44:11;;;;;;;16.30;5.43;;;4.30;99.90;;;;;;5039654;28;20049;-49
2021/12/08 07:46:42;;;;;;;9.23;5.00;;;4.30;99.90;;;;;;5045454;28;20052;-49
2021/12/08 07:49:36;;;;;;;9.13;4.85;;;4.20;99.90;;;;;;5011812;28;20110;-49
2021/12/08 07:52:18;;;;;;;11.73;4.47;;;4.20;99.90;;;;;;5034624;28;20135;-50
2021/12/08 07:54:48;;;;;;;11.43;4.40;;;4.20;99.90;;;;;;5051751;28;20565;-51
2021/12/08 07:57:19;;;;;;;10.55;4.55;;;4.20;99.90;;;;;;5045061;28;20048;-49
2021/12/08 07:59:49;;;;;;;9.85;4.63;;;4.20;99.90;;;;;;5043829;28;20047;-50
2021/12/08 08:02:16;;;;;;;12.90;4.38;;;4.20;99.90;;;;;;5042847;28;20053;-52
2021/12/08 08:04:45;;;;;;;8.95;4.68;;;4.20;99.90;;;;;;5023951;28;20054;-50
2021/12/08 08:07:16;;;;;;;12.05;5.13;;;4.20;99.90;;;;;;5032089;28;20051;-47
2021/12/08 08:09:45;;;;;;;16.15;4.22;;;4.20;99.90;;;;;;5029864;28;20041;-48
2021/12/08 08:12:17;;;;;;;12.05;3.85;;;4.30;99.90;;;;;;5019959;28;20085;-48
2021/12/08 08:14:49;;;;;;;10.07;4.20;;;4.30;99.90;;;;;;5023654;28;20056;-51
2021/12/08 08:17:18;;;;;;;12.20;4.07;;;4.30;99.90;;;;;;5037344;28;20507;-48
2021/12/08 08:19:46;;;;;;;9.88;3.70;;;4.30;99.90;;;;;;5040581;28;20514;-52
2021/12/08 08:22:18;;;;;;;11.23;3.20;;;4.30;99.90;;;;;;5044534;28;20048;-49
2021/12/08 08:24:45;;;;;;;10.15;3.45;;;4.30;99.90;;;;;;5039521;28;20051;-51
2021/12/08 08:27:14;;;;;;;10.60;3.25;;;4.30;99.90;;;;;;5021239;28;20045;-48
2021/12/08 08:29:40;;;;;;;12.88;3.65;;;4.30;99.90;;;;;;5041080;28;20537;-50
2021/12/08 08:32:25;;;;;;;7.35;3.30;;;4.20;99.90;;;;;;5023291;28;20630;-49
2021/12/08 08:35:07;;;;;;;10.90;2.90;;;4.20;99.90;;;;;;5023422;28;20533;-48
2021/12/08 08:37:33;;;;;;;11.02;4.43;;;4.20;99.90;;;;;;5036807;28;20041;-49
2021/12/08 08:40:04;;;;;;;7.93;3.30;;;4.20;99.90;;;;;;5047417;28;20471;-48
2021/12/08 08:42:36;;;;;;;13.73;2.97;;;4.10;99.90;;;;;;5042724;28;20499;-50
2021/12/08 08:45:09;;;;;;;12.15;3.45;;;4.10;99.90;;;;;;5043759;28;20037;-48
2021/12/08 08:47:40;;;;;;;7.75;2.72;;;4.00;99.90;;;;;;5044299;28;20492;-51
2021/12/08 08:50:14;;;;;;;9.32;3.33;;;4.10;99.90;;;;;;5040353;28;20043;-50
2021/12/08 08:52:42;;;;;;;;;;;4.00;99.90;;;;;;5057661;28;20490;-48
2021/12/08 08:55:23;;;;;;;12.10;2.80;;;4.10;99.90;;;;;;5049004;28;19971;-50
2021/12/08 08:57:49;;;;;;;8.45;2.80;;;4.10;99.90;;;;;;5044446;28;20044;-51
2021/12/08 09:00:40;;;;;;;7.30;2.58;;;4.10;99.90;;;;;;5045964;28;20055;-49
2021/12/08 09:03:11;;;;;;;8.88;3.08;;;4.10;99.90;;;;;;5030631;28;20138;-49
2021/12/08 09:06:00;;;;;;;10.27;2.60;;;4.10;99.90;;;;;;5045273;28;20064;-50
2021/12/08 09:08:29;;;;;;;9.13;3.30;;;4.10;99.90;;;;;;5042329;28;20053;-51
2021/12/08 09:11:24;;;;;;;11.82;3.15;;;4.00;99.90;;;;;;5028427;28;20860;-52
2021/12/08 09:14:00;;;;;;;11.90;3.15;;;4.00;99.90;;;;;;5023658;28;20111;-50
2021/12/08 09:17:05;;;;;;;11.27;3.53;;;4.00;99.90;;;;;;5027947;28;20091;-49
2021/12/08 09:19:41;;;;;;;7.25;2.40;;;4.00;99.90;;;;;;4963429;28;20170;-49
2021/12/08 09:22:26;;;;;;;10.60;3.75;;;4.00;99.90;;;;;;4993024;28;20054;-48
2021/12/08 09:24:56;;;;;;;14.90;3.25;;;4.10;99.90;;;;;;4989055;28;20153;-48
2021/12/08 09:27:30;;;;;;;8.98;3.08;;;4.20;99.90;;;;;;4982537;28;20739;-50
2021/12/08 09:30:00;;;;;;;14.65;4.57;;;4.30;99.90;;;;;;4990343;28;20261;-51
2021/12/08 09:32:27;;;;;;;10.30;3.42;;;4.40;99.90;;;;;;4983161;28;20046;-52
2021/12/08 09:35:00;;;;;;;18.33;4.45;;;4.50;99.90;;;;;;4996245;28;20089;-51
2021/12/08 09:37:33;;;;;;;9.60;3.42;;;4.50;99.90;;;;;;4979769;28;20047;-48
2021/12/08 09:40:32;;;;;;;9.82;3.63;;;4.60;99.90;;;;;;4974156;28;20054;-49
2021/12/08 09:43:03;;;;;;;14.60;4.03;;;4.70;99.90;;;;;;4945415;29;20133;-50
2021/12/08 09:45:46;;;;;;;13.90;4.45;;;4.70;99.90;;;;;;4943755;29;20434;-48
2021/12/08 09:48:12;;;;;;;9.95;3.47;;;4.70;99.90;;;;;;4944090;29;20055;-49
2021/12/08 09:50:39;;;;;;;13.55;4.22;;;4.80;99.90;;;;;;4945265;29;20573;-49
2021/12/08 09:53:07;;;;;;;9.50;3.60;;;4.80;99.90;;;;;;4929409;29;20055;-50
2021/12/08 09:55:35;;;;;;;12.82;3.75;;;4.80;99.90;;;;;;4911648;29;20051;-49
2021/12/08 09:58:01;;;;;;;12.70;4.63;;;4.80;99.90;;;;;;4937820;29;20117;-51
2021/12/08 10:00:40;;;;;;;11.52;3.83;;;4.70;99.90;;;;;;4937681;29;20060;-49
2021/12/08 10:03:07;;;;;;;11.80;5.43;;;4.80;99.90;;;;;;4928669;29;20490;-49
2021/12/08 10:05:36;;;;;;;13.07;4.38;;;4.80;99.90;;;;;;4936973;28;20126;-49
2021/12/08 10:08:05;;;;;;;13.45;5.10;;;4.80;99.90;;;;;;4932080;29;20063;-50
2021/12/08 10:10:32;;;;;;;12.80;4.35;;;4.80;99.90;;;;;;4940586;29;20058;-49
2021/12/08 10:12:59;;;;;;;15.32;4.63;;;4.80;99.90;;;;;;4928328;29;20158;-49
2021/12/08 10:15:25;;;;;;;15.05;5.57;;;4.80;99.90;;;;;;4946854;29;20059;-49
2021/12/08 10:17:55;;;;;;;14.88;4.68;;;4.90;99.90;;;;;;4931880;29;20087;-50
2021/12/08 10:20:43;;;;;;;10.70;4.00;;;4.80;99.90;;;;;;5014153;28;20149;-52
2021/12/08 10:23:28;;;;;;;8.90;3.85;;;4.90;99.90;;;;;;5032941;28;20064;-52
2021/12/08 10:26:00;;;;;;;12.15;4.38;;;4.90;99.90;;;;;;5047346;28;20053;-50
2021/12/08 10:28:31;;;;;;;15.45;5.18;;;4.90;99.90;;;;;;5046922;28;20049;-49
2021/12/08 10:31:09;;;;;;;18.23;5.20;;;4.90;99.90;;;;;;5044455;28;20049;-49
2021/12/08 10:36:36;;;;;;;15.23;4.95;;;5.00;99.90;;;;;;5045409;28;20189;-48
2021/12/08 10:39:15;;;;;;;15.07;5.10;;;5.00;99.90;;;;;;5027773;28;20098;-48
2021/12/08 10:42:01;;;;;;;13.43;4.53;;;5.10;99.90;;;;;;5027426;28;20087;-49
2021/12/08 10:44:47;;;;;;;14.15;4.45;;;5.10;99.90;;;;;;5043681;28;20404;-50
2021/12/08 10:47:23;;;;;;;15.60;3.95;;;5.10;99.90;;;;;;5046156;28;20052;-50
2021/12/08 10:55:22;;;;;;;10.80;3.35;;;5.20;99.90;;;;;;5046201;28;20570;-49
2021/12/08 10:57:53;;;;;;;16.08;4.10;;;5.20;99.90;;;;;;5048459;28;20053;-50
2021/12/08 11:00:26;;;;;;;11.52;3.53;;;5.30;99.90;;;;;;5037637;28;20052;-50
2021/12/08 11:03:04;;;;;;;10.05;3.55;;;5.30;99.90;;;;;;5027688;28;20103;-52
2021/12/08 11:05:36;;;;;;;14.65;5.00;;;5.30;99.90;;;;;;5048133;28;20477;-48
2021/12/08 11:08:31;;;;;;;11.18;3.40;;;5.40;99.90;;;;;;5049174;28;20486;-48
2021/12/08 11:11:20;;;;;;;12.60;3.53;;;5.40;99.90;;;;;;5028807;28;20553;-48
2021/12/08 11:13:55;;;;;;;11.18;3.33;;;5.50;99.90;;;;;;5057475;28;20522;-50
2021/12/08 11:16:24;;;;;;;12.18;3.20;;;5.50;99.90;;;;;;5054892;28;20087;-48
2021/12/08 11:19:02;;;;;;;10.02;3.33;;;5.50;99.90;;;;;;5045951;28;20431;-51
2021/12/08 11:21:35;;;;;;;6.78;3.60;;;5.50;99.90;;;;;;5045967;28;20522;-49
2021/12/08 11:24:19;;;;;;;13.65;3.83;;;5.50;99.90;;;;;;5046543;28;20044;-49
2021/12/08 11:26:47;;;;;;;;;;;5.60;99.90;;;;;;5045220;28;20045;-51
2021/12/08 11:29:24;;;;;;;8.32;3.88;;;5.60;99.90;;;;;;5046200;28;19928;-51
2021/12/08 11:31:54;;;;;;;8.90;3.63;;;5.60;99.90;;;;;;5051026;28;20096;-50
2021/12/08 11:34:26;;;;;;;10.25;4.32;;;5.50;99.90;;;;;;5026970;28;20060;-49
2021/12/08 11:36:58;;;;;;;10.13;4.28;;;5.50;99.90;;;;;;5044016;28;20490;-48
2021/12/08 11:39:40;;;;;;;9.18;3.75;;;5.60;99.90;;;;;;5018668;28;20109;-50
2021/12/08 11:42:20;;;;;;;8.38;3.88;;;5.60;99.90;;;;;;5012958;28;20049;-51
2021/12/08 11:44:52;;;;;;;10.38;3.60;;;5.60;99.90;;;;;;5046302;28;20047;-50
2021/12/08 11:47:26;;;;;;;10.18;3.88;;;5.60;99.90;;;;;;5023861;28;20084;-49
2021/12/08 11:49:57;;;;;;;14.38;3.90;;;5.50;99.90;;;;;;5040307;28;20077;-47
2021/12/08 11:52:29;;;;;;;8.85;3.90;;;5.50;99.90;;;;;;5031603;28;20053;-47
2021/12/08 11:55:06;;;;;;;9.52;4.68;;;5.50;99.90;;;;;;5045500;28;20143;-48
2021/12/08 11:57:36;;;;;;;9.50;4.22;;;5.40;99.90;;;;;;5010266;28;20203;-48
2021/12/08 12:00:11;;;;;;;8.02;3.58;;;5.40;99.90;;;;;;5025589;28;20049;-48
2021/12/08 12:02:44;;;;;;;7.82;4.03;;;5.40;99.90;;;;;;5024203;28;20050;-48
2021/12/08 12:05:13;;;;;;;7.03;4.22;;;5.40;99.90;;;;;;5038081;28;20095;-47
2021/12/08 12:07:39;;;;;;;9.68;3.70;;;5.40;99.90;;;;;;5051353;28;20053;-47
2021/12/08 12:10:11;;;;;;;9.65;3.90;;;5.40;99.90;;;;;;5043607;28;20040;-47
2021/12/08 12:12:39;;;;;;;7.80;3.55;;;5.40;99.90;;;;;;5042543;28;20049;-46
2021/12/08 12:15:10;;;;;;;9.65;3.30;;;5.40;99.90;;;;;;5045686;28;20040;-50
2021/12/08 12:17:37;;;;;;;6.68;3.80;;;5.40;99.90;;;;;;5033299;28;20136;-48
2021/12/08 12:20:09;;;;;;;10.45;4.10;;;5.40;99.90;;;;;;5050422;28;20058;-49
2021/12/08 12:23:05;;;;;;;8.18;3.67;;;5.50;99.90;;;;;;5020718;28;20055;-49
2021/12/08 12:26:14;;;;;;;7.53;3.70;;;5.50;99.90;;;;;;5010589;28;20442;-47
2021/12/08 12:29:17;;;;;;;10.77;3.00;;;5.50;99.90;;;;;;5029358;28;20045;-48
2021/12/08 12:31:52;;;;;;;12.88;4.32;;;5.50;99.90;;;;;;5041131;28;20052;-50
2021/12/08 12:34:35;;;;;;;9.75;3.40;;;5.50;99.90;;;;;;5015770;28;20057;-48
2021/12/08 12:37:29;;;;;;;11.90;3.35;;;5.50;99.90;;;;;;5030258;28;20045;-49
2021/12/08 12:39:57;;;;;;;7.00;3.30;;;5.50;99.90;;;;;;5037653;28;20052;-50
2021/12/08 12:42:47;;;;;;;10.65;3.42;;;5.50;99.90;;;;;;5027997;28;20045;-50
2021/12/08 12:45:14;;;;;;;10.63;3.00;;;5.50;99.90;;;;;;5035152;28;20463;-49
2021/12/08 12:47:41;;;;;;;6.15;2.80;;;5.50;99.90;;;;;;5022317;28;20057;-47
2021/12/08 12:50:12;;;;;;;8.75;3.05;;;5.50;99.90;;;;;;5009970;28;20045;-48
2021/12/08 12:52:43;;;;;;;9.30;5.18;;;5.50;99.90;;;;;;5041557;28;20053;-47
2021/12/08 12:55:30;;;;;;;8.65;3.10;;;5.50;99.90;;;;;;5015086;28;20203;-47
2021/12/08 12:58:09;;;;;;;9.77;3.03;;;5.60;99.90;;;;;;5027059;28;20084;-50
2021/12/08 13:01:09;;;;;;;14.20;3.83;;;5.60;99.90;;;;;;5035302;28;20415;-47
2021/12/08 13:03:38;;;;;;;7.25;2.85;;;5.60;99.90;;;;;;5004768;28;20057;-49
2021/12/08 13:06:05;;;;;;;9.57;3.25;;;5.70;99.90;;;;;;5029416;28;20056;-47
2021/12/08 13:08:31;;;;;;;9.45;3.35;;;5.80;99.90;;;;;;4997290;28;20057;-49
2021/12/08 13:11:27;;;;;;;10.82;2.72;;;5.90;99.90;;;;;;5025972;28;20045;-49
2021/12/08 13:13:57;;;;;;;7.88;3.40;;;5.90;99.90;;;;;;5010285;28;20085;-48
2021/12/08 13:16:34;;;;;;;8.70;2.70;;;5.80;99.90;;;;;;5038632;28;20410;-49
2021/12/08 13:19:07;;;;;;;6.63;3.45;;;5.70;99.90;;;;;;5033260;28;20540;-49
2021/12/08 13:21:52;;;;;;;10.95;3.25;;;5.70;99.90;;;;;;5045919;28;20502;-49
2021/12/08 13:24:40;;;;;;;8.68;2.92;;;5.70;99.90;;;;;;5046377;28;20061;-48
2021/12/08 13:27:13;;;;;;;10.82;2.85;;;5.70;99.90;;;;;;5052668;28;20474;-49
2021/12/08 13:29:46;;;;;;;9.57;2.90;;;5.80;99.90;;;;;;5040528;28;20057;-48
2021/12/08 13:32:16;;;;;;;5.80;2.97;;;5.80;99.90;;;;;;5045436;28;20470;-48
2021/12/08 13:34:54;;;;;;;9.43;3.70;;;5.80;99.90;;;;;;5045639;28;20049;-50
2021/12/08 13:37:24;;;;;;;10.75;3.22;;;5.70;99.90;;;;;;5030043;28;20057;-48
2021/12/08 13:39:52;;;;;;;11.50;3.88;;;5.70;99.90;;;;;;5024103;28;20053;-47
2021/12/08 13:42:29;;;;;;;7.03;2.72;;;5.60;99.90;;;;;;5011201;28;20159;-48
2021/12/08 13:45:08;;;;;;;6.57;2.28;;;5.60;99.90;;;;;;5044710;28;20048;-47
2021/12/08 13:48:03;;;;;;;10.90;3.40;;;5.60;99.90;;;;;;5052421;28;20048;-50
2021/12/08 13:50:36;;;;;;;7.65;2.58;;;5.60;99.90;;;;;;5026648;28;20049;-52
2021/12/08 13:53:10;;;;;;;8.02;2.67;;;5.60;99.90;;;;;;5051485;28;20478;-50
2021/12/08 13:55:50;;;;;;;9.48;2.88;;;5.70;99.90;;;;;;5016767;28;20102;-47
2021/12/08 13:58:18;;;;;;;10.13;2.78;;;5.70;99.90;;;;;;5052076;28;20048;-47
2021/12/08 14:00:49;;;;;;;10.05;3.38;;;5.70;99.90;;;;;;5023836;28;20055;-48
2021/12/08 14:03:55;;;;;;;8.20;2.88;;;5.70;99.90;;;;;;5048302;28;20045;-47